createdAt,value
2022-10-19T00:02:30.471Z,59.92
2022-10-19T00:05:32.082Z,59.89
2022-10-19T00:08:33.632Z,59.88
2022-10-19T00:11:37.990Z,60.01
2022-10-19T00:14:39.558Z,59.88
2022-10-19T00:17:43.252Z,59.98
2022-10-19T00:20:44.944Z,59.95
2022-10-19T00:23:46.986Z,60.02
2022-10-19T00:26:48.848Z,60.08
2022-10-19T00:29:50.368Z,60.16
2022-10-19T00:32:51.903Z,60.01
2022-10-19T00:35:53.416Z,60.15
2022-10-19T00:38:56.259Z,60.07
2022-10-19T00:41:57.890Z,60.10
2022-10-19T00:45:03.952Z,60.15
2022-10-19T00:48:05.969Z,60.26
2022-10-19T00:51:07.656Z,60.18
2022-10-19T00:54:09.963Z,60.08
2022-10-19T00:57:12.222Z,60.19
2022-10-19T01:00:14.020Z,60.27
2022-10-19T01:03:15.842Z,60.22
2022-10-19T01:06:18.348Z,60.26
2022-10-19T01:09:20.008Z,60.45
2022-10-19T01:12:38.103Z,60.31
2022-10-19T01:15:51.105Z,60.23
2022-10-19T01:19:21.076Z,60.23
2022-10-19T01:22:43.652Z,60.19
2022-10-19T01:26:19.202Z,60.24
2022-10-19T01:29:41.390Z,60.23
2022-10-19T01:33:13.961Z,60.21
2022-10-19T01:36:26.409Z,60.37
2022-10-19T01:39:52.205Z,60.33
2022-10-19T01:43:02.550Z,60.27
2022-10-19T01:46:34.740Z,60.37
2022-10-19T01:49:44.708Z,60.30
2022-10-19T01:52:49.969Z,60.28
2022-10-19T01:55:54.277Z,60.25
2022-10-19T01:58:59.029Z,60.42
2022-10-19T02:02:03.617Z,60.38
2022-10-19T02:05:07.481Z,60.43
2022-10-19T02:08:17.418Z,60.47
2022-10-19T02:11:20.732Z,60.45
2022-10-19T02:14:27.809Z,60.34
2022-10-19T02:17:35.478Z,60.36
2022-10-19T02:20:37.589Z,60.46
2022-10-19T02:23:39.488Z,60.42
2022-10-19T02:26:41.674Z,60.41
2022-10-19T02:29:43.522Z,60.32
2022-10-19T02:32:45.131Z,60.39
2022-10-19T02:35:48.110Z,60.36
2022-10-19T02:38:49.694Z,60.46
2022-10-19T02:42:07.033Z,60.35
2022-10-19T02:45:17.740Z,60.50
2022-10-19T02:48:24.754Z,60.61
2022-10-19T02:51:32.339Z,60.54
2022-10-19T02:54:34.557Z,60.41
2022-10-19T02:57:36.948Z,60.27
2022-10-19T03:00:38.705Z,60.48
2022-10-19T03:03:41.260Z,60.50
2022-10-19T03:06:43.243Z,60.45
2022-10-19T03:09:45.539Z,60.54
2022-10-19T03:12:47.097Z,60.53
2022-10-19T03:15:48.942Z,60.43
2022-10-19T03:18:51.420Z,60.44
2022-10-19T03:21:52.945Z,60.53
2022-10-19T03:24:54.515Z,60.46
2022-10-19T03:27:56.067Z,60.54
2022-10-19T03:30:57.668Z,60.50
2022-10-19T03:33:59.201Z,60.61
2022-10-19T03:37:00.825Z,60.54
2022-10-19T03:40:02.434Z,60.52
2022-10-19T03:43:04.100Z,60.65
2022-10-19T03:46:05.791Z,60.50
2022-10-19T03:49:09.025Z,60.70
2022-10-19T03:52:10.585Z,60.57
2022-10-19T03:55:12.333Z,60.60
2022-10-19T03:58:13.865Z,60.63
2022-10-19T04:01:16.713Z,60.58
2022-10-19T04:04:19.689Z,60.68
2022-10-19T04:07:21.259Z,60.63
2022-10-19T04:10:22.783Z,60.67
2022-10-19T04:13:24.317Z,60.60
2022-10-19T04:16:27.719Z,60.66
2022-10-19T04:19:30.620Z,60.58
2022-10-19T04:22:32.284Z,60.63
2022-10-19T04:25:33.838Z,60.67
2022-10-19T04:28:35.419Z,60.67
2022-10-19T04:31:37.669Z,60.45
2022-10-19T04:34:40.187Z,60.58
2022-10-19T04:37:41.902Z,60.58
2022-10-19T04:40:43.446Z,60.53
2022-10-19T04:43:45.396Z,60.61
2022-10-19T04:46:47.001Z,60.55
2022-10-19T04:49:48.524Z,60.47
2022-10-19T04:52:50.104Z,60.55
2022-10-19T04:55:51.811Z,60.67
2022-10-19T04:58:58.616Z,60.55
2022-10-19T05:02:00.141Z,60.64
2022-10-19T05:05:01.803Z,60.60
2022-10-19T05:08:03.887Z,60.61
2022-10-19T05:11:14.678Z,60.51
2022-10-19T05:14:16.469Z,60.55
2022-10-19T05:17:18.026Z,60.52
2022-10-19T05:20:19.537Z,60.48
2022-10-19T05:23:21.152Z,60.59
2022-10-19T05:26:24.687Z,60.51
2022-10-19T05:29:26.217Z,60.55
2022-10-19T05:32:28.600Z,60.52
2022-10-19T05:35:30.149Z,60.49
2022-10-19T05:38:31.685Z,60.56
2022-10-19T05:41:33.790Z,61.30
2022-10-19T05:44:36.065Z,61.38
2022-10-19T05:47:37.891Z,60.76
2022-10-19T05:50:39.432Z,60.46
2022-10-19T05:53:41.617Z,61.01
2022-10-19T05:56:43.634Z,60.85
2022-10-19T05:59:45.198Z,60.56
2022-10-19T06:02:46.745Z,60.68
2022-10-19T06:05:49.512Z,60.40
2022-10-19T06:08:52.133Z,60.44
2022-10-19T06:11:53.678Z,60.52
2022-10-19T06:14:55.189Z,60.64
2022-10-19T06:17:56.719Z,60.58
2022-10-19T06:21:02.960Z,60.54
2022-10-19T06:24:05.787Z,60.52
2022-10-19T06:27:07.378Z,60.60
2022-10-19T06:30:09.512Z,60.58
2022-10-19T06:33:11.095Z,60.63
2022-10-19T06:36:15.183Z,60.64
2022-10-19T06:39:16.719Z,60.56
2022-10-19T06:42:18.292Z,60.64
2022-10-19T06:45:19.860Z,60.45
2022-10-19T06:48:21.685Z,60.45
2022-10-19T06:51:25.459Z,60.55
2022-10-19T06:54:26.988Z,60.59
2022-10-19T06:57:28.752Z,60.62
2022-10-19T07:00:31.262Z,60.70
2022-10-19T07:03:33.045Z,60.72
2022-10-19T07:06:34.586Z,60.50
2022-10-19T07:09:36.236Z,60.44
2022-10-19T07:12:37.765Z,60.60
2022-10-19T07:15:39.311Z,60.61
2022-10-19T07:18:41.525Z,60.74
2022-10-19T07:21:43.892Z,60.50
2022-10-19T07:24:45.681Z,60.71
2022-10-19T07:27:47.238Z,60.69
2022-10-19T07:30:48.811Z,60.57
2022-10-19T07:33:58.867Z,60.62
2022-10-19T07:37:00.376Z,60.66
2022-10-19T07:40:02.054Z,60.55
2022-10-19T07:43:03.735Z,60.58
2022-10-19T07:46:07.919Z,60.55
2022-10-19T07:49:13.258Z,60.65
2022-10-19T07:52:14.998Z,60.54
2022-10-19T07:55:16.527Z,60.62
2022-10-19T07:58:18.043Z,60.58
2022-10-19T08:01:22.972Z,60.58
2022-10-19T08:04:56.069Z,60.41
2022-10-19T08:07:47.010Z,60.48
2022-10-19T08:10:48.516Z,60.43
2022-10-19T08:13:50.567Z,60.36
2022-10-19T08:16:52.102Z,60.29
2022-10-19T08:19:53.652Z,60.42
2022-10-19T08:22:58.130Z,60.44
2022-10-19T08:26:00.704Z,60.37
2022-10-19T08:29:05.179Z,60.24
2022-10-19T08:32:06.743Z,60.48
2022-10-19T08:35:10.756Z,60.40
2022-10-19T08:38:12.528Z,60.17
2022-10-19T08:41:27.208Z,60.22
2022-10-19T08:44:34.909Z,60.26
2022-10-19T08:48:06.367Z,60.29
2022-10-19T08:51:10.133Z,60.45
2022-10-19T08:54:17.876Z,60.28
2022-10-19T08:58:03.889Z,60.21
2022-10-19T09:01:40.936Z,60.34
2022-10-19T09:04:49.077Z,60.08
2022-10-19T09:07:53.911Z,60.13
2022-10-19T09:10:55.570Z,60.09
2022-10-19T09:14:31.133Z,60.31
2022-10-19T09:17:33.590Z,60.26
2022-10-19T09:20:44.175Z,60.21
2022-10-19T09:24:07.308Z,60.70
2022-10-19T09:27:18.928Z,60.94
2022-10-19T09:30:23.515Z,60.19
2022-10-19T09:33:36.065Z,59.89
2022-10-19T09:36:50.952Z,60.08
2022-10-19T09:39:54.903Z,60.14
2022-10-19T09:42:58.869Z,60.01
2022-10-19T09:46:19.991Z,60.10
2022-10-19T09:49:40.372Z,59.73
2022-10-19T09:52:44.041Z,59.91
2022-10-19T09:55:53.516Z,60.00
2022-10-19T09:58:58.922Z,59.66
2022-10-19T10:02:18.265Z,59.59
2022-10-19T10:05:30.914Z,59.58
2022-10-19T10:08:58.789Z,59.54
2022-10-19T10:12:00.551Z,59.41
2022-10-19T10:15:06.403Z,59.40
2022-10-19T10:18:18.013Z,59.62
2022-10-19T10:21:35.733Z,59.44
2022-10-19T10:24:52.050Z,59.41
2022-10-19T10:27:57.913Z,59.43
2022-10-19T10:31:06.164Z,59.42
2022-10-19T10:34:37.615Z,58.94
2022-10-19T10:37:47.798Z,59.02
2022-10-19T10:40:56.871Z,58.79
2022-10-19T10:44:06.682Z,58.86
2022-10-19T10:47:14.956Z,58.68
2022-10-19T10:50:31.969Z,58.95
2022-10-19T10:53:36.204Z,59.23
2022-10-19T10:56:40.878Z,58.86
2022-10-19T11:00:07.769Z,58.68
2022-10-19T11:03:32.792Z,58.87
2022-10-19T11:06:44.450Z,58.93
2022-10-19T11:09:59.783Z,58.73
2022-10-19T11:13:16.634Z,58.65
2022-10-19T11:16:23.837Z,58.84
2022-10-19T11:19:29.728Z,58.71
2022-10-19T11:22:54.555Z,58.67
2022-10-19T11:26:10.662Z,58.63
2022-10-19T11:29:30.873Z,58.62
2022-10-19T11:33:00.189Z,58.95
2022-10-19T11:36:24.441Z,58.80
2022-10-19T11:39:54.809Z,58.39
2022-10-19T11:43:04.852Z,58.21
2022-10-19T11:46:27.867Z,58.54
2022-10-19T11:50:01.854Z,58.31
2022-10-19T11:53:06.173Z,58.17
2022-10-19T11:56:16.660Z,57.99
2022-10-19T11:59:37.313Z,57.95
2022-10-19T12:02:38.816Z,58.02
2022-10-19T12:05:59.761Z,58.12
2022-10-19T12:09:24.589Z,58.31
2022-10-19T12:12:36.293Z,58.24
2022-10-19T12:15:42.636Z,57.82
2022-10-19T12:18:51.389Z,58.03
2022-10-19T12:22:01.424Z,57.98
2022-10-19T12:25:03.900Z,58.16
2022-10-19T12:28:05.652Z,57.74
2022-10-19T12:31:08.116Z,57.76
2022-10-19T12:34:46.744Z,57.64
2022-10-19T12:38:00.011Z,57.67
2022-10-19T12:41:01.919Z,57.56
2022-10-19T12:44:19.936Z,58.00
2022-10-19T12:47:23.472Z,57.58
2022-10-19T12:50:50.092Z,57.70
2022-10-19T12:53:51.691Z,57.98
2022-10-19T12:56:55.767Z,57.92
2022-10-19T13:00:00.774Z,57.59
2022-10-19T13:03:05.519Z,57.79
2022-10-19T13:06:18.470Z,57.73
2022-10-19T13:09:41.912Z,57.69
2022-10-19T13:12:46.863Z,57.44
2022-10-19T13:15:51.412Z,57.24
2022-10-19T13:18:59.186Z,57.44
2022-10-19T13:22:01.097Z,57.15
2022-10-19T13:25:23.780Z,57.16
2022-10-19T13:28:28.073Z,57.19
2022-10-19T13:31:31.437Z,57.57
2022-10-19T13:34:33.752Z,57.27
2022-10-19T13:37:35.495Z,57.06
2022-10-19T13:40:49.183Z,57.55
2022-10-19T13:43:56.528Z,57.18
2022-10-19T13:47:07.573Z,57.19
2022-10-19T13:50:50.583Z,57.19
2022-10-19T13:54:00.764Z,57.56
2022-10-19T13:57:10.575Z,57.07
2022-10-19T14:00:18.039Z,57.02
2022-10-19T14:03:38.269Z,56.74
2022-10-19T14:06:42.634Z,56.98
2022-10-19T14:09:47.037Z,56.96
2022-10-19T14:12:49.780Z,57.01
2022-10-19T14:15:54.107Z,57.20
2022-10-19T14:18:56.404Z,57.20
2022-10-19T14:22:17.592Z,57.26
2022-10-19T14:25:20.893Z,57.07
2022-10-19T14:28:23.748Z,56.93
2022-10-19T14:31:37.322Z,57.18
2022-10-19T14:34:43.543Z,57.32
2022-10-19T14:37:45.295Z,57.38
2022-10-19T14:40:46.843Z,56.96
2022-10-19T14:43:48.421Z,57.06
2022-10-19T14:46:50.048Z,57.00
2022-10-19T14:49:51.731Z,57.33
2022-10-19T14:53:01.760Z,56.98
2022-10-19T14:56:09.745Z,57.09
2022-10-19T14:59:31.239Z,56.97
2022-10-19T15:03:01.619Z,57.22
2022-10-19T15:06:06.108Z,57.28
2022-10-19T15:09:15.407Z,57.06
2022-10-19T15:12:36.536Z,57.03
2022-10-19T15:15:41.926Z,57.18
2022-10-19T15:18:49.783Z,56.88
2022-10-19T15:22:18.607Z,56.87
2022-10-19T15:25:36.829Z,57.20
2022-10-19T15:28:41.649Z,57.15
2022-10-19T15:31:43.488Z,56.91
2022-10-19T15:34:46.281Z,57.23
2022-10-19T15:37:50.073Z,57.38
2022-10-19T15:41:02.549Z,57.33
2022-10-19T15:44:08.574Z,57.15
2022-10-19T15:47:15.831Z,57.28
2022-10-19T15:50:36.617Z,57.32
2022-10-19T15:53:38.125Z,57.20
2022-10-19T15:56:40.195Z,57.37
2022-10-19T15:59:41.742Z,57.40
2022-10-19T16:02:43.368Z,57.23
2022-10-19T16:05:45.139Z,57.50
2022-10-19T16:08:47.731Z,57.31
2022-10-19T16:11:50.327Z,57.43
2022-10-19T16:14:52.579Z,57.33
2022-10-19T16:18:00.088Z,57.42
2022-10-19T16:21:01.807Z,57.33
2022-10-19T16:24:03.906Z,57.18
2022-10-19T16:27:06.483Z,57.58
2022-10-19T16:30:08.715Z,57.61
2022-10-19T16:33:10.218Z,57.36
2022-10-19T16:36:13.037Z,57.61
2022-10-19T16:39:14.589Z,57.41
2022-10-19T16:42:16.184Z,57.22
2022-10-19T16:45:17.737Z,57.62
2022-10-19T16:48:23.891Z,57.53
2022-10-19T16:51:30.498Z,57.54
2022-10-19T16:54:32.892Z,57.46
2022-10-19T16:57:34.621Z,57.68
2022-10-19T17:00:36.232Z,57.30
2022-10-19T17:03:37.818Z,57.38
2022-10-19T17:06:40.616Z,57.47
2022-10-19T17:09:43.214Z,57.43
2022-10-19T17:12:45.024Z,57.66
2022-10-19T17:15:46.559Z,57.64
2022-10-19T17:18:48.988Z,57.53
2022-10-19T17:21:50.712Z,57.35
2022-10-19T17:24:54.180Z,57.43
2022-10-19T17:27:55.761Z,57.50
2022-10-19T17:30:57.969Z,57.45
2022-10-19T17:34:00.823Z,57.53
2022-10-19T17:37:02.513Z,57.29
2022-10-19T17:40:04.454Z,57.20
2022-10-19T17:43:06.001Z,57.36
2022-10-19T17:46:09.542Z,57.16
2022-10-19T17:49:11.631Z,57.31
2022-10-19T17:52:13.437Z,57.31
2022-10-19T17:55:15.072Z,57.28
2022-10-19T17:58:16.693Z,57.29
2022-10-19T18:01:19.769Z,57.46
2022-10-19T18:04:21.353Z,57.52
2022-10-19T18:07:25.622Z,57.42
2022-10-19T18:10:27.157Z,57.37
2022-10-19T18:13:29.110Z,57.30
2022-10-19T18:16:52.125Z,57.34
2022-10-19T18:19:53.702Z,57.29
2022-10-19T18:22:55.203Z,57.22
2022-10-19T18:26:02.146Z,57.19
2022-10-19T18:29:11.118Z,57.21
2022-10-19T18:32:12.670Z,57.17
2022-10-19T18:35:14.265Z,57.25
2022-10-19T18:38:15.816Z,57.43
2022-10-19T18:41:17.810Z,57.37
2022-10-19T18:44:25.154Z,57.35
2022-10-19T18:47:30.251Z,57.27
2022-10-19T18:50:31.898Z,57.30
2022-10-19T18:53:34.408Z,57.33
2022-10-19T18:56:38.477Z,57.35
2022-10-19T18:59:40.055Z,57.19
2022-10-19T19:02:47.018Z,57.36
2022-10-19T19:05:48.962Z,57.37
2022-10-19T19:08:51.308Z,57.60
2022-10-19T19:11:54.335Z,57.52
2022-10-19T19:14:55.876Z,57.64
2022-10-19T19:17:57.394Z,57.92
2022-10-19T19:20:59.010Z,57.98
2022-10-19T19:24:02.045Z,57.89
2022-10-19T19:27:03.746Z,57.92
2022-10-19T19:30:05.756Z,58.06
2022-10-19T19:33:07.378Z,58.05
2022-10-19T19:36:11.406Z,58.19
2022-10-19T19:39:14.921Z,58.16
2022-10-19T19:42:16.497Z,58.14
2022-10-19T19:45:18.013Z,58.21
2022-10-19T19:48:19.615Z,57.99
2022-10-19T19:51:21.400Z,58.04
2022-10-19T19:54:23.597Z,58.14
2022-10-19T19:57:25.266Z,58.20
2022-10-19T20:00:26.863Z,58.16
2022-10-19T20:03:28.519Z,58.09
2022-10-19T20:06:31.020Z,58.03
2022-10-19T20:09:32.663Z,58.32
2022-10-19T20:12:34.196Z,58.17
2022-10-19T20:15:38.849Z,58.24
2022-10-19T20:18:48.912Z,58.45
2022-10-19T20:21:50.477Z,58.21
2022-10-19T20:24:52.137Z,58.30
2022-10-19T20:27:53.749Z,58.37
2022-10-19T20:31:09.124Z,58.19
2022-10-19T20:34:13.673Z,58.28
2022-10-19T20:37:15.203Z,58.43
2022-10-19T20:40:17.702Z,58.36
2022-10-19T20:43:19.298Z,58.23
2022-10-19T20:46:23.612Z,58.32
2022-10-19T20:49:25.153Z,58.32
2022-10-19T20:52:26.684Z,58.37
2022-10-19T20:55:28.192Z,58.37
2022-10-19T20:58:29.712Z,58.49
2022-10-19T21:01:33.816Z,58.09
2022-10-19T21:04:35.575Z,58.31
2022-10-19T21:07:37.116Z,58.55
2022-10-19T21:10:38.638Z,58.39
2022-10-19T21:13:40.470Z,58.46
2022-10-19T21:16:42.784Z,58.37
2022-10-19T21:19:44.317Z,58.67
2022-10-19T21:22:45.816Z,58.52
2022-10-19T21:25:54.834Z,58.37
2022-10-19T21:28:56.893Z,58.37
2022-10-19T21:31:58.582Z,58.50
2022-10-19T21:35:00.184Z,58.29
2022-10-19T21:38:01.676Z,58.46
2022-10-19T21:41:05.677Z,58.36
2022-10-19T21:44:07.236Z,58.42
2022-10-19T21:47:08.763Z,58.37
2022-10-19T21:50:10.279Z,58.42
2022-10-19T21:53:11.808Z,58.37
2022-10-19T21:56:15.541Z,58.35
2022-10-19T21:59:18.221Z,58.45
2022-10-19T22:02:19.735Z,58.59
2022-10-19T22:05:21.536Z,58.53
2022-10-19T22:08:23.091Z,58.41
2022-10-19T22:11:25.396Z,58.44
2022-10-19T22:14:27.184Z,58.49
2022-10-19T22:17:28.693Z,58.36
2022-10-19T22:20:30.260Z,58.35
2022-10-19T22:23:31.904Z,58.50
2022-10-19T22:26:37.174Z,58.51
2022-10-19T22:29:38.752Z,58.31
2022-10-19T22:32:40.348Z,58.39
2022-10-19T22:35:41.881Z,58.38
2022-10-19T22:38:43.472Z,58.50
2022-10-19T22:41:45.001Z,58.60
2022-10-19T22:44:46.531Z,58.71
2022-10-19T22:47:48.073Z,58.73
2022-10-19T22:50:54.196Z,58.67
2022-10-19T22:53:55.842Z,58.64
2022-10-19T22:56:57.453Z,58.60
2022-10-19T22:59:59.032Z,58.70
2022-10-19T23:03:00.589Z,58.79
2022-10-19T23:06:02.148Z,58.82
2022-10-19T23:09:04.018Z,58.71
2022-10-19T23:12:06.242Z,58.84
2022-10-19T23:15:08.648Z,58.93
2022-10-19T23:18:10.339Z,58.76
2022-10-19T23:21:13.184Z,58.89
2022-10-19T23:24:14.824Z,59.00
2022-10-19T23:27:16.400Z,58.55
2022-10-19T23:30:17.993Z,58.89
2022-10-19T23:33:19.481Z,58.94
2022-10-19T23:36:24.733Z,58.94
2022-10-19T23:39:26.236Z,59.04
2022-10-19T23:42:27.778Z,58.95
2022-10-19T23:45:29.349Z,59.07
2022-10-19T23:48:30.916Z,58.95
2022-10-19T23:51:32.645Z,59.05
2022-10-19T23:54:34.356Z,59.07
2022-10-19T23:57:36.363Z,58.94
